Time;durP1;ratioP1;P1;durP2;ratioP2;P2;SDS_P1;SDS_P2;PMS_P1;PMS_P2;Temp;Humidity;BMP_temperature;BMP_pressure;BME280_temperature;BME280_humidity;BME280_pressure;Samples;Min_cycle;Max_cycle;Signal;HPM_P1;HPM_P2
2023/01/26 04:00:41;;;;;;;2.75;2.00;;;15.10;49.00;;;;;;5783341;23;46181;-66
2023/01/26 04:08:35;;;;;;;3.25;2.00;;;15.10;49.00;;;;;;4955386;28;45201;-62
2023/01/26 04:11:00;;;;;;;3.10;1.92;;;15.10;49.00;;;;;;4967390;28;45179;-62
2023/01/26 04:21:39;;;;;;;3.05;1.90;;;15.00;49.00;;;;;;4952289;28;45274;-62
2023/01/26 04:24:14;;;;;;;2.53;1.95;;;15.00;49.00;;;;;;4949499;28;45167;-62
2023/01/26 04:26:40;;;;;;;2.97;2.08;;;15.00;49.00;;;;;;4962969;28;46111;-62
2023/01/26 04:29:08;;;;;;;3.38;2.35;;;15.00;49.00;;;;;;4971409;28;45206;-62
2023/01/26 04:31:33;;;;;;;2.72;1.92;;;15.00;49.00;;;;;;4965069;28;46369;-63
2023/01/26 04:33:59;;;;;;;3.13;2.10;;;15.00;49.00;;;;;;4963208;28;44983;-60
2023/01/26 04:36:25;;;;;;;3.53;2.17;;;15.00;49.00;;;;;;4952110;28;46201;-60
2023/01/26 04:38:51;;;;;;;3.60;2.22;;;14.90;49.00;;;;;;4950788;28;45002;-61
2023/01/26 04:41:17;;;;;;;2.95;2.15;;;15.00;49.10;;;;;;4965636;28;45279;-62
2023/01/26 04:43:42;;;;;;;2.13;1.80;;;14.90;49.00;;;;;;4950597;28;44991;-61
2023/01/26 04:46:08;;;;;;;2.72;2.00;;;14.90;49.00;;;;;;4954683;28;47264;-61
2023/01/26 04:48:34;;;;;;;2.83;2.38;;;14.90;49.10;;;;;;4963467;28;45163;-61
2023/01/26 04:51:04;;;;;;;2.97;2.10;;;14.90;49.10;;;;;;4940069;28;45111;-62
2023/01/26 04:53:31;;;;;;;3.25;2.25;;;14.90;49.10;;;;;;4932387;28;45031;-63
2023/01/26 04:55:56;;;;;;;2.90;2.20;;;14.90;49.10;;;;;;4948872;28;45149;-62
2023/01/26 04:58:22;;;;;;;3.63;2.25;;;14.90;49.10;;;;;;4939126;28;45957;-61
2023/01/26 05:00:54;;;;;;;2.78;2.00;;;14.80;49.10;;;;;;4965594;28;44977;-62
2023/01/26 05:03:21;;;;;;;2.67;1.98;;;14.80;49.10;;;;;;4933939;28;45138;-63
2023/01/26 05:05:50;;;;;;;2.53;2.00;;;14.80;49.10;;;;;;4920966;28;44849;-63
2023/01/26 05:08:16;;;;;;;2.22;1.90;;;14.80;49.10;;;;;;4967262;28;45103;-62
2023/01/26 05:10:42;;;;;;;3.67;2.55;;;14.80;49.10;;;;;;4967737;28;44895;-61
2023/01/26 05:13:08;;;;;;;2.92;2.13;;;14.80;49.10;;;;;;4951478;28;45260;-63
2023/01/26 05:15:34;;;;;;;2.40;2.00;;;14.80;49.10;;;;;;4936713;28;46955;-61
2023/01/26 05:17:59;;;;;;;2.42;1.90;;;14.80;49.60;;;;;;4964057;28;45206;-61
2023/01/26 05:20:25;;;;;;;3.17;2.22;;;14.80;49.10;;;;;;4934220;28;45304;-61
2023/01/26 05:22:51;;;;;;;2.50;1.90;;;14.80;49.10;;;;;;4934282;28;45573;-63
2023/01/26 05:25:16;;;;;;;3.03;2.05;;;14.80;49.70;;;;;;4953457;28;47389;-61
2023/01/26 05:27:42;;;;;;;3.25;2.10;;;14.80;49.10;;;;;;4965487;28;45238;-61
2023/01/26 05:30:08;;;;;;;3.05;2.10;;;14.80;49.10;;;;;;4933915;28;45152;-64
2023/01/26 05:32:34;;;;;;;2.85;1.73;;;14.70;49.10;;;;;;4961267;28;45517;-62
2023/01/26 05:35:00;;;;;;;2.47;1.85;;;14.80;49.10;;;;;;4950620;28;46084;-60
2023/01/26 05:37:26;;;;;;;2.63;2.17;;;14.70;49.00;;;;;;4946277;28;44945;-62
2023/01/26 05:39:51;;;;;;;2.80;2.10;;;14.70;49.10;;;;;;4951979;28;45072;-61
2023/01/26 05:42:17;;;;;;;2.42;2.00;;;14.70;49.10;;;;;;4963522;28;44805;-62
2023/01/26 05:44:43;;;;;;;3.13;2.10;;;14.70;49.10;;;;;;4950754;28;45590;-62
2023/01/26 05:47:08;;;;;;;1.92;1.73;;;14.70;49.10;;;;;;4962424;28;45044;-63
2023/01/26 05:49:34;;;;;;;2.38;1.88;;;14.70;49.10;;;;;;4965462;28;45120;-61
2023/01/26 05:52:00;;;;;;;2.88;2.42;;;14.70;49.20;;;;;;4942579;28;44956;-61
2023/01/26 05:54:25;;;;;;;2.55;1.95;;;14.70;49.10;;;;;;4950504;28;45453;-61
2023/01/26 05:56:52;;;;;;;2.45;2.13;;;14.70;49.10;;;;;;4953556;28;45017;-62
2023/01/26 05:59:18;;;;;;;2.20;1.55;;;14.70;49.10;;;;;;4924670;28;45008;-64
2023/01/26 06:01:44;;;;;;;3.30;2.05;;;14.70;49.10;;;;;;4950291;28;45163;-62
2023/01/26 06:04:09;;;;;;;2.42;1.83;;;14.70;49.20;;;;;;4949209;28;46957;-61
2023/01/26 06:06:35;;;;;;;2.60;2.13;;;14.70;49.10;;;;;;4946451;28;45050;-64
2023/01/26 06:09:01;;;;;;;2.55;1.92;;;14.70;49.10;;;;;;4951484;28;45217;-62
2023/01/26 06:11:26;;;;;;;3.13;1.90;;;14.60;49.00;;;;;;4951937;28;44745;-63
2023/01/26 06:13:53;;;;;;;2.58;1.88;;;14.60;49.10;;;;;;4965253;28;44978;-61
2023/01/26 06:16:18;;;;;;;3.22;2.13;;;14.60;49.10;;;;;;4967316;28;45197;-64
2023/01/26 06:18:47;;;;;;;2.05;1.70;;;14.60;49.10;;;;;;4962293;28;45020;-64
2023/01/26 06:21:13;;;;;;;3.25;2.20;;;14.60;49.20;;;;;;4961302;28;44984;-62
2023/01/26 06:23:38;;;;;;;2.55;2.05;;;14.60;49.10;;;;;;4966946;28;44969;-64
2023/01/26 06:26:05;;;;;;;2.67;1.90;;;14.60;49.20;;;;;;4943446;28;45380;-60
2023/01/26 06:28:30;;;;;;;2.95;2.10;;;14.50;49.20;;;;;;4946563;28;45068;-64
2023/01/26 06:31:00;;;;;;;2.47;1.85;;;14.60;49.20;;;;;;4962616;28;44891;-62
2023/01/26 06:33:25;;;;;;;2.60;2.25;;;14.60;49.20;;;;;;4947221;28;45910;-59
2023/01/26 06:35:53;;;;;;;3.67;1.98;;;14.50;49.10;;;;;;4949228;28;45358;-62
2023/01/26 06:38:19;;;;;;;2.92;2.00;;;14.50;49.20;;;;;;4954288;28;45103;-62
2023/01/26 06:40:45;;;;;;;4.05;2.42;;;14.50;49.20;;;;;;4949040;28;45564;-60
2023/01/26 06:43:11;;;;;;;3.08;2.00;;;14.50;49.20;;;;;;4949774;28;46090;-63
2023/01/26 06:45:37;;;;;;;2.92;2.30;;;14.50;49.20;;;;;;4958693;28;44806;-63
2023/01/26 06:48:03;;;;;;;3.55;2.28;;;14.50;49.20;;;;;;4946999;28;45438;-62
2023/01/26 06:50:31;;;;;;;2.17;1.90;;;14.50;49.20;;;;;;4947733;28;45210;-63
2023/01/26 06:52:58;;;;;;;3.15;2.15;;;14.50;49.20;;;;;;4931625;28;46660;-62
2023/01/26 06:55:35;;;;;;;2.90;1.83;;;14.40;49.20;;;;;;4965208;28;44848;-63
2023/01/26 06:58:00;;;;;;;2.20;1.80;;;14.50;49.30;;;;;;4947133;28;46540;-62
2023/01/26 07:00:26;;;;;;;2.60;1.95;;;14.40;49.20;;;;;;4969351;28;44990;-62
2023/01/26 07:02:52;;;;;;;2.55;1.80;;;14.40;49.20;;;;;;4953710;28;45047;-61
2023/01/26 07:05:18;;;;;;;10.20;6.78;;;14.40;49.20;;;;;;4949820;28;45094;-62
2023/01/26 07:07:43;;;;;;;15.23;9.07;;;14.30;47.00;;;;;;4950758;28;44986;-60
2023/01/26 07:10:10;;;;;;;15.35;9.38;;;14.20;46.10;;;;;;4951290;28;45471;-62
2023/01/26 07:12:44;;;;;;;16.00;9.30;;;14.00;46.20;;;;;;4934488;28;46178;-62
2023/01/26 07:15:10;;;;;;;11.63;7.60;;;14.00;46.20;;;;;;4961857;28;45299;-59
2023/01/26 07:17:38;;;;;;;11.90;7.03;;;14.00;47.10;;;;;;4948228;28;45114;-63
2023/01/26 07:20:04;;;;;;;11.55;7.20;;;14.10;47.40;;;;;;4948601;28;45705;-59
2023/01/26 07:22:29;;;;;;;11.55;6.70;;;14.30;47.10;;;;;;4960555;28;45247;-60
2023/01/26 07:24:55;;;;;;;9.43;6.47;;;14.60;46.80;;;;;;4945307;28;45072;-66
2023/01/26 07:27:20;;;;;;;8.98;6.50;;;14.80;46.40;;;;;;4963631;28;45051;-67
2023/01/26 07:29:46;;;;;;;8.75;5.53;;;15.10;46.30;;;;;;4949042;28;44996;-64
2023/01/26 07:32:12;;;;;;;11.15;5.57;;;15.30;46.00;;;;;;4959184;28;45991;-61
2023/01/26 07:34:37;;;;;;;7.03;4.75;;;15.40;45.80;;;;;;4952435;28;45030;-61
2023/01/26 07:37:04;;;;;;;6.70;4.65;;;15.50;45.70;;;;;;4948872;28;45166;-64
2023/01/26 07:39:30;;;;;;;6.28;4.13;;;15.70;45.60;;;;;;4951024;28;45018;-63
2023/01/26 07:41:55;;;;;;;6.93;4.65;;;15.80;45.40;;;;;;4966402;28;45673;-63
2023/01/26 07:44:21;;;;;;;6.65;4.03;;;16.00;45.40;;;;;;4948693;28;45069;-64
2023/01/26 07:46:47;;;;;;;7.00;3.97;;;16.10;45.40;;;;;;4940983;28;44878;-64
2023/01/26 07:49:12;;;;;;;5.40;3.97;;;16.20;45.30;;;;;;4944526;28;45213;-63
2023/01/26 07:51:40;;;;;;;6.03;3.47;;;16.20;45.20;;;;;;4956035;28;45617;-63
2023/01/26 07:54:06;;;;;;;5.20;3.60;;;16.20;45.40;;;;;;4970811;28;45275;-61
2023/01/26 07:56:32;;;;;;;6.82;4.10;;;16.20;45.50;;;;;;4950093;28;45054;-64
2023/01/26 07:58:57;;;;;;;5.13;3.75;;;16.30;45.60;;;;;;4968388;28;45281;-62
2023/01/26 08:01:23;;;;;;;6.93;3.92;;;16.40;45.50;;;;;;4941962;28;45830;-64
2023/01/26 08:03:49;;;;;;;6.03;3.78;;;16.60;45.30;;;;;;4963637;28;45436;-62
2023/01/26 08:06:16;;;;;;;4.70;3.67;;;16.80;45.20;;;;;;4949581;28;45251;-63
2023/01/26 08:08:41;;;;;;;5.18;3.47;;;16.90;44.90;;;;;;4938478;28;45034;-62
2023/01/26 08:11:07;;;;;;;5.45;3.85;;;17.10;44.80;;;;;;4954519;28;45964;-62
2023/01/26 08:13:33;;;;;;;4.97;3.30;;;17.30;44.70;;;;;;4952678;28;45269;-62
2023/01/26 08:16:03;;;;;;;5.05;3.50;;;17.50;44.50;;;;;;4963008;28;44931;-62
2023/01/26 08:18:29;;;;;;;4.63;2.95;;;17.60;44.30;;;;;;4948508;28;45361;-63
2023/01/26 08:20:55;;;;;;;4.43;2.97;;;17.70;44.30;;;;;;4968579;28;46165;-62
2023/01/26 08:23:20;;;;;;;4.55;3.05;;;17.90;44.30;;;;;;4955362;28;45014;-62
2023/01/26 08:25:46;;;;;;;4.95;3.08;;;17.90;44.20;;;;;;4949744;28;45025;-63
2023/01/26 08:28:12;;;;;;;4.63;2.75;;;18.10;44.20;;;;;;4961405;28;45006;-61
2023/01/26 08:30:37;;;;;;;5.05;3.13;;;18.10;44.10;;;;;;4969299;28;46287;-61
2023/01/26 08:33:03;;;;;;;5.03;3.08;;;18.20;44.10;;;;;;4955159;28;45276;-60
2023/01/26 08:35:30;;;;;;;4.45;3.17;;;18.20;43.90;;;;;;4949190;28;44954;-60
2023/01/26 08:37:56;;;;;;;3.90;2.47;;;18.20;44.20;;;;;;4951198;28;44762;-60
2023/01/26 08:40:23;;;;;;;3.72;2.75;;;18.30;44.30;;;;;;4964222;28;45068;-62
2023/01/26 08:42:48;;;;;;;4.25;2.75;;;18.40;44.20;;;;;;4966500;28;45065;-62
2023/01/26 08:45:14;;;;;;;3.85;2.78;;;18.50;44.00;;;;;;4951124;28;45024;-65
2023/01/26 08:47:39;;;;;;;3.13;2.22;;;18.70;43.90;;;;;;4966511;28;45358;-63
2023/01/26 08:50:05;;;;;;;3.42;2.47;;;18.80;43.70;;;;;;4947938;28;46556;-62
2023/01/26 08:52:31;;;;;;;4.13;2.80;;;19.00;43.60;;;;;;4947700;28;45680;-62
2023/01/26 08:54:56;;;;;;;5.20;2.47;;;19.10;43.40;;;;;;4961623;28;44798;-63
2023/01/26 08:57:22;;;;;;;2.60;1.92;;;19.30;43.30;;;;;;4965543;28;45748;-62
2023/01/26 08:59:47;;;;;;;3.67;2.40;;;19.40;43.30;;;;;;4951797;28;46166;-63
2023/01/26 09:02:13;;;;;;;3.15;2.20;;;19.60;43.20;;;;;;4953674;28;45223;-62
2023/01/26 09:04:38;;;;;;;4.53;2.38;;;19.60;43.10;;;;;;4952421;28;45276;-62
2023/01/26 09:07:04;;;;;;;2.90;2.17;;;19.70;43.00;;;;;;4946369;28;45122;-61
2023/01/26 09:09:30;;;;;;;4.25;2.42;;;19.80;43.00;;;;;;4967393;28;45831;-65
2023/01/26 09:11:56;;;;;;;3.15;2.10;;;19.90;43.00;;;;;;4937884;28;44759;-62
2023/01/26 09:14:22;;;;;;;3.67;2.00;;;19.90;42.90;;;;;;4955608;28;45042;-64
2023/01/26 09:16:48;;;;;;;3.10;2.28;;;19.90;42.90;;;;;;4947359;28;45082;-63
2023/01/26 09:19:13;;;;;;;4.43;2.13;;;19.90;43.10;;;;;;4948520;28;46253;-62
2023/01/26 09:21:39;;;;;;;4.65;2.10;;;19.90;43.10;;;;;;4966780;28;44927;-63
2023/01/26 09:24:05;;;;;;;3.08;2.15;;;20.00;43.00;;;;;;4950502;28;45069;-64
2023/01/26 09:26:30;;;;;;;2.65;1.98;;;20.10;42.90;;;;;;4944043;28;45049;-65
2023/01/26 09:28:56;;;;;;;3.47;2.45;;;20.30;42.80;;;;;;4934305;28;44982;-63
2023/01/26 09:31:21;;;;;;;2.85;1.90;;;20.40;42.60;;;;;;4933030;28;44966;-63
2023/01/26 09:33:48;;;;;;;3.85;2.40;;;20.60;42.50;;;;;;4951875;28;46104;-63
2023/01/26 09:36:14;;;;;;;3.40;2.20;;;20.70;42.40;;;;;;4919132;28;45147;-63
2023/01/26 09:38:39;;;;;;;3.70;1.90;;;20.80;42.30;;;;;;4962231;28;46052;-63
2023/01/26 09:41:06;;;;;;;2.38;1.90;;;20.90;42.20;;;;;;4927232;28;45043;-61
2023/01/26 09:43:56;;;;;;;3.30;2.10;;;21.00;42.10;;;;;;4954362;28;44957;-62
2023/01/26 09:46:26;;;;;;;2.63;2.08;;;21.10;41.60;;;;;;4941329;28;45400;-64
2023/01/26 09:48:52;;;;;;;6.63;2.08;;;21.20;42.00;;;;;;4933118;28;45607;-62
2023/01/26 09:51:36;;;;;;;2.47;2.10;;;21.30;42.00;;;;;;4966254;28;44899;-64
2023/01/26 09:54:11;;;;;;;3.50;2.03;;;21.30;41.60;;;;;;4951594;28;45001;-63
2023/01/26 09:56:36;;;;;;;2.60;2.00;;;21.30;41.80;;;;;;4947741;28;45607;-64
2023/01/26 09:59:39;;;;;;;2.75;2.03;;;21.30;41.90;;;;;;4945682;28;45258;-64
2023/01/26 10:02:14;;;;;;;2.35;1.83;;;21.30;41.70;;;;;;4949477;28;45629;-65
2023/01/26 10:04:41;;;;;;;2.65;2.00;;;21.30;41.90;;;;;;4934107;28;44945;-61
2023/01/26 10:07:11;;;;;;;3.28;2.10;;;21.40;42.00;;;;;;4945185;28;45196;-64
2023/01/26 10:09:37;;;;;;;2.72;2.17;;;21.60;41.90;;;;;;4951483;28;46259;-63
2023/01/26 10:12:07;;;;;;;2.20;1.98;;;21.70;41.80;;;;;;4938929;28;46088;-63
2023/01/26 10:14:40;;;;;;;2.28;1.80;;;21.80;41.60;;;;;;4947975;28;45121;-62
2023/01/26 10:17:11;;;;;;;2.35;1.95;;;21.90;41.50;;;;;;4946685;28;44832;-62
2023/01/26 10:19:40;;;;;;;2.72;1.98;;;22.00;41.40;;;;;;4915247;28;46901;-63
2023/01/26 10:22:44;;;;;;;1.95;1.63;;;22.10;41.30;;;;;;4951064;28;44842;-65
2023/01/26 10:25:18;;;;;;;3.03;1.77;;;22.30;40.70;;;;;;4951201;28;44906;-64
2023/01/26 10:27:44;;;;;;;3.55;2.00;;;22.30;40.90;;;;;;4947303;28;44891;-64
2023/01/26 10:30:17;;;;;;;3.47;2.08;;;22.40;41.10;;;;;;4935151;28;45662;-64
2023/01/26 10:32:43;;;;;;;2.20;1.65;;;22.50;40.90;;;;;;4933842;28;45005;-62
2023/01/26 10:35:27;;;;;;;2.67;1.95;;;22.50;41.10;;;;;;4945221;28;45552;-64
2023/01/26 10:37:52;;;;;;;2.90;1.95;;;22.50;40.50;;;;;;4945711;28;44852;-64
2023/01/26 10:40:18;;;;;;;3.47;1.80;;;22.40;41.00;;;;;;4948707;28;45821;-65
2023/01/26 10:42:56;;;;;;;2.20;1.60;;;22.40;41.20;;;;;;4962649;28;44697;-65
2023/01/26 10:45:27;;;;;;;1.75;1.40;;;22.40;41.10;;;;;;4930874;28;45138;-63
2023/01/26 10:48:13;;;;;;;1.95;1.60;;;22.40;41.20;;;;;;4959236;28;45047;-63
2023/01/26 10:50:39;;;;;;;2.80;2.05;;;22.60;40.90;;;;;;4947560;28;45512;-63
2023/01/26 10:53:04;;;;;;;2.15;1.77;;;22.70;41.10;;;;;;4952993;28;45117;-62
2023/01/26 10:55:31;;;;;;;2.03;1.52;;;22.80;41.00;;;;;;4949965;28;44995;-61
2023/01/26 10:57:57;;;;;;;2.25;1.75;;;22.90;41.00;;;;;;4952180;28;44932;-62
2023/01/26 11:00:24;;;;;;;2.38;1.60;;;22.90;40.80;;;;;;4952471;28;46065;-64
2023/01/26 11:02:51;;;;;;;1.98;1.50;;;23.00;40.90;;;;;;4951961;28;44958;-65
2023/01/26 11:05:21;;;;;;;2.00;1.60;;;23.00;40.80;;;;;;4951470;28;44699;-64
2023/01/26 11:07:48;;;;;;;2.83;1.70;;;23.10;40.70;;;;;;4933590;28;44955;-63
2023/01/26 11:10:33;;;;;;;1.80;1.50;;;23.20;40.70;;;;;;4940638;28;46370;-61
2023/01/26 11:13:16;;;;;;;1.65;1.25;;;23.20;40.20;;;;;;4958393;28;45164;-62
2023/01/26 11:15:46;;;;;;;1.95;1.52;;;23.20;40.30;;;;;;4954628;28;44914;-62
2023/01/26 11:18:27;;;;;;;1.80;1.50;;;23.30;40.60;;;;;;4949352;28;44977;-62
2023/01/26 11:20:57;;;;;;;2.00;1.60;;;23.30;40.30;;;;;;4940021;28;45903;-61
2023/01/26 11:23:33;;;;;;;1.77;1.50;;;23.40;40.30;;;;;;4958796;28;44996;-62
2023/01/26 11:26:42;;;;;;;1.70;1.45;;;23.30;40.30;;;;;;4958852;28;44983;-62
2023/01/26 11:29:12;;;;;;;2.70;1.38;;;23.20;40.10;;;;;;4960365;28;45001;-62
2023/01/26 11:31:43;;;;;;;2.40;1.40;;;23.20;40.60;;;;;;4954226;28;45995;-62
2023/01/26 11:34:17;;;;;;;2.30;1.70;;;23.20;40.70;;;;;;4974736;28;45125;-64
2023/01/26 11:36:47;;;;;;;1.75;1.50;;;23.20;40.60;;;;;;4973836;28;44675;-62
2023/01/26 11:39:49;;;;;;;1.40;1.30;;;23.20;40.70;;;;;;4959382;28;44629;-63
2023/01/26 11:42:26;;;;;;;1.95;1.60;;;23.30;40.30;;;;;;4939697;28;46083;-63
2023/01/26 11:45:33;;;;;;;2.08;1.50;;;23.30;40.40;;;;;;4955022;28;45199;-63
2023/01/26 11:48:20;;;;;;;1.63;1.25;;;23.30;39.90;;;;;;4931229;28;45063;-62
2023/01/26 11:51:04;;;;;;;2.17;1.48;;;23.30;40.40;;;;;;4945705;28;44774;-62
2023/01/26 11:53:44;;;;;;;1.50;1.13;;;23.40;40.10;;;;;;4960467;28;45267;-62
2023/01/26 11:56:19;;;;;;;1.80;1.15;;;23.40;40.10;;;;;;4954503;28;45006;-59
2023/01/26 11:59:02;;;;;;;1.85;1.45;;;23.50;40.50;;;;;;4971357;28;44975;-59
2023/01/26 12:01:38;;;;;;;2.10;1.33;;;23.50;40.40;;;;;;4972029;28;45441;-55
2023/01/26 12:04:03;;;;;;;1.88;1.67;;;23.50;40.50;;;;;;4942319;28;45161;-53
2023/01/26 12:06:36;;;;;;;2.42;1.55;;;23.50;40.50;;;;;;4960720;28;44915;-54
2023/01/26 12:09:10;;;;;;;1.52;1.25;;;23.60;40.40;;;;;;4976124;28;44913;-56
2023/01/26 12:11:41;;;;;;;1.42;1.30;;;23.60;40.50;;;;;;4971894;28;45169;-54
2023/01/26 12:14:20;;;;;;;1.80;1.30;;;23.60;40.40;;;;;;4945376;28;45583;-55
2023/01/26 12:16:58;;;;;;;2.17;1.52;;;23.60;40.40;;;;;;4953252;28;45359;-58
2023/01/26 12:19:54;;;;;;;1.30;1.15;;;23.70;40.20;;;;;;4952561;28;44903;-52
2023/01/26 12:22:28;;;;;;;1.92;1.23;;;23.70;40.10;;;;;;4936231;28;45209;-56
2023/01/26 12:25:01;;;;;;;1.10;1.00;;;23.70;40.40;;;;;;4956246;28;45863;-56
2023/01/26 12:27:28;;;;;;;;;;;23.70;40.40;;;;;;4940316;28;44875;-57
2023/01/26 12:30:22;;;;;;;1.80;1.23;;;23.70;40.00;;;;;;4972224;28;45219;-55
2023/01/26 12:32:47;;;;;;;2.35;1.35;;;23.80;40.30;;;;;;4953033;28;44966;-53
2023/01/26 12:35:13;;;;;;;1.80;1.25;;;23.70;40.30;;;;;;4972517;28;46161;-55
2023/01/26 12:37:49;;;;;;;1.38;1.27;;;23.70;40.60;;;;;;4971148;28;45126;-54
2023/01/26 12:40:23;;;;;;;1.65;1.30;;;23.60;40.60;;;;;;4955498;28;44627;-58
2023/01/26 12:42:58;;;;;;;1.92;1.38;;;23.50;40.70;;;;;;4936658;28;45210;-59
2023/01/26 12:45:29;;;;;;;2.45;1.60;;;23.60;40.70;;;;;;4971596;28;46169;-54
2023/01/26 12:47:57;;;;;;;1.95;1.30;;;23.60;40.80;;;;;;4940149;28;45065;-54
2023/01/26 12:50:30;;;;;;;1.80;1.25;;;23.70;40.80;;;;;;4951010;28;44976;-54
2023/01/26 12:52:55;;;;;;;;;;;23.70;40.80;;;;;;4965047;28;45041;-55
2023/01/26 12:55:31;;;;;;;1.10;0.98;;;23.70;40.50;;;;;;4970398;28;44934;-56
2023/01/26 12:58:05;;;;;;;1.25;1.00;;;23.70;40.60;;;;;;4955631;28;44953;-58
2023/01/26 13:00:31;;;;;;;1.27;0.93;;;23.80;40.70;;;;;;4956687;28;44894;-57
2023/01/26 13:03:14;;;;;;;1.40;1.30;;;23.80;40.70;;;;;;4953219;28;44929;-56
2023/01/26 13:05:53;;;;;;;1.05;0.95;;;23.90;40.60;;;;;;4940326;28;47476;-57
2023/01/26 13:08:31;;;;;;;1.88;1.50;;;23.90;40.50;;;;;;4969994;28;45056;-56
2023/01/26 13:10:57;;;;;;;1.77;1.27;;;24.00;40.50;;;;;;4954241;28;44679;-58
2023/01/26 13:13:35;;;;;;;1.90;1.35;;;24.00;40.60;;;;;;4935190;28;44831;-58
2023/01/26 13:16:16;;;;;;;1.45;1.13;;;24.00;40.50;;;;;;4952928;28;46376;-57
2023/01/26 13:18:51;;;;;;;1.65;1.40;;;24.00;40.40;;;;;;4971740;28;45272;-56
2023/01/26 13:21:43;;;;;;;1.30;1.20;;;24.10;40.50;;;;;;4954447;28;44864;-52
2023/01/26 13:24:15;;;;;;;1.95;1.20;;;24.10;40.30;;;;;;4962349;28;44904;-55
2023/01/26 13:26:44;;;;;;;1.02;0.77;;;24.20;40.60;;;;;;4967578;28;45068;-51
2023/01/26 13:29:30;;;;;;;1.60;1.20;;;24.20;40.60;;;;;;4951524;28;44790;-55
2023/01/26 13:32:00;;;;;;;1.40;1.20;;;24.20;40.30;;;;;;4953214;28;45178;-53
2023/01/26 13:34:40;;;;;;;1.95;1.10;;;24.20;40.60;;;;;;4945188;28;45280;-59
2023/01/26 13:37:13;;;;;;;1.67;1.02;;;24.30;40.60;;;;;;4952570;28;45222;-54
2023/01/26 13:39:40;;;;;;;;;;;24.30;40.40;;;;;;4954328;28;45179;-55
2023/01/26 13:42:26;;;;;;;1.27;1.15;;;24.20;40.10;;;;;;4936382;28;45082;-56
2023/01/26 13:45:18;;;;;;;1.70;1.08;;;24.10;40.50;;;;;;4905030;28;44740;-54
2023/01/26 13:47:45;;;;;;;1.20;1.10;;;24.10;40.60;;;;;;4944215;28;46252;-58
2023/01/26 13:50:33;;;;;;;1.50;1.08;;;24.10;40.90;;;;;;4963794;28;45110;-57
2023/01/26 13:52:59;;;;;;;0.88;0.85;;;24.10;40.80;;;;;;4969976;28;44840;-59
2023/01/26 13:55:33;;;;;;;1.88;1.20;;;24.10;40.90;;;;;;4935087;28;44794;-57
2023/01/26 13:58:17;;;;;;;1.17;0.90;;;24.20;40.80;;;;;;4948215;28;46423;-60
2023/01/26 14:00:58;;;;;;;1.35;1.25;;;24.20;40.70;;;;;;4971219;28;45808;-60
2023/01/26 14:03:24;;;;;;;1.63;1.20;;;24.30;40.80;;;;;;4947728;28;45224;-59
2023/01/26 14:05:54;;;;;;;1.48;1.23;;;24.30;40.80;;;;;;4954755;28;45143;-58
2023/01/26 14:08:21;;;;;;;1.15;1.00;;;24.40;40.80;;;;;;4936436;28;46365;-59
2023/01/26 14:10:47;;;;;;;1.45;1.23;;;24.40;40.80;;;;;;4934535;28;44830;-57
2023/01/26 14:13:19;;;;;;;1.23;0.93;;;24.40;41.40;;;;;;4949858;28;44810;-58
2023/01/26 14:15:45;;;;;;;1.63;1.33;;;24.40;40.80;;;;;;4943459;28;44663;-58
2023/01/26 14:18:21;;;;;;;1.10;1.00;;;24.40;40.80;;;;;;4953234;28;46004;-53
2023/01/26 14:20:47;;;;;;;1.45;1.20;;;24.40;40.80;;;;;;4971259;28;44934;-55
2023/01/26 14:23:17;;;;;;;1.60;1.23;;;24.30;40.80;;;;;;4952249;28;44910;-54
2023/01/26 14:25:48;;;;;;;1.40;1.25;;;24.40;40.90;;;;;;4964976;28;44685;-55
2023/01/26 14:28:15;;;;;;;1.45;1.08;;;24.40;40.80;;;;;;4954313;28;45436;-55
2023/01/26 14:30:40;;;;;;;1.88;1.50;;;24.40;40.90;;;;;;4956486;28;44802;-54
2023/01/26 14:33:13;;;;;;;1.77;1.20;;;24.40;40.90;;;;;;4965891;28;45026;-55
2023/01/26 14:35:39;;;;;;;1.65;1.10;;;24.40;40.80;;;;;;4949278;28;45318;-54
2023/01/26 14:38:10;;;;;;;1.40;1.23;;;24.40;40.90;;;;;;4945739;28;45123;-54
2023/01/26 14:40:48;;;;;;;1.48;1.20;;;24.40;40.90;;;;;;4965114;28;44802;-59
2023/01/26 14:43:14;;;;;;;1.33;0.82;;;24.40;40.90;;;;;;4950659;28;44873;-57
2023/01/26 14:45:57;;;;;;;1.40;1.17;;;24.40;41.00;;;;;;4933486;28;45080;-54
2023/01/26 14:48:31;;;;;;;1.60;1.17;;;24.40;41.00;;;;;;4950000;28;45707;-57
2023/01/26 14:50:57;;;;;;;1.73;1.20;;;24.40;41.00;;;;;;4967333;28;45540;-56
2023/01/26 14:53:23;;;;;;;1.17;1.08;;;24.40;41.00;;;;;;4954380;28;45298;-55
2023/01/26 14:55:49;;;;;;;1.05;0.93;;;24.40;41.10;;;;;;4970637;28;44868;-51
2023/01/26 14:58:34;;;;;;;1.85;1.50;;;24.40;41.00;;;;;;4920930;28;45985;-50
2023/01/26 15:01:00;;;;;;;1.60;1.20;;;24.50;40.90;;;;;;4950010;28;44995;-60
2023/01/26 15:03:33;;;;;;;1.27;1.00;;;24.40;41.00;;;;;;4950124;28;44712;-56
2023/01/26 15:06:14;;;;;;;2.17;1.35;;;24.40;40.90;;;;;;4934025;28;45078;-55
2023/01/26 15:08:41;;;;;;;1.35;1.02;;;24.40;40.90;;;;;;4969660;28;46466;-53
2023/01/26 15:13:54;;;;;;;1.38;1.27;;;24.40;41.00;;;;;;4953753;28;45261;-51
2023/01/26 15:16:23;;;;;;;1.13;1.00;;;24.40;41.00;;;;;;4964315;28;45156;-55
2023/01/26 15:18:59;;;;;;;1.63;1.08;;;24.50;41.10;;;;;;4934302;28;47138;-53
2023/01/26 15:21:32;;;;;;;1.10;0.98;;;24.50;41.00;;;;;;4951662;28;45149;-54
2023/01/26 15:23:58;;;;;;;1.90;1.27;;;24.50;41.00;;;;;;4936392;28;45162;-54
2023/01/26 15:26:28;;;;;;;1.65;1.08;;;24.50;41.00;;;;;;4950762;28;44908;-52
2023/01/26 15:28:55;;;;;;;1.92;1.40;;;24.50;41.00;;;;;;4951141;28;46438;-54
2023/01/26 15:31:33;;;;;;;1.30;1.17;;;24.50;41.10;;;;;;4952362;28;44914;-53
2023/01/26 15:34:00;;;;;;;1.33;1.00;;;24.50;40.90;;;;;;4931490;28;45714;-56
2023/01/26 15:36:33;;;;;;;1.20;1.10;;;24.40;40.90;;;;;;4935704;28;44988;-59
2023/01/26 15:39:19;;;;;;;1.52;1.17;;;24.30;41.10;;;;;;4966667;28;45509;-53
2023/01/26 15:41:57;;;;;;;1.90;1.50;;;24.20;41.20;;;;;;4951972;28;45114;-56
2023/01/26 15:44:22;;;;;;;2.20;1.50;;;24.10;41.40;;;;;;4951586;28;44903;-54
2023/01/26 15:46:48;;;;;;;1.55;1.35;;;24.10;41.50;;;;;;4955317;28;44937;-56
2023/01/26 15:49:13;;;;;;;1.58;1.30;;;24.00;41.50;;;;;;4965536;28;46008;-51
2023/01/26 15:51:39;;;;;;;1.25;1.10;;;23.90;41.50;;;;;;4943001;28;44705;-60
2023/01/26 15:54:05;;;;;;;1.75;1.48;;;23.80;41.60;;;;;;4948228;28;44899;-55
2023/01/26 15:56:31;;;;;;;0.98;0.88;;;23.70;41.70;;;;;;4951718;28;45323;-52
2023/01/26 15:58:56;;;;;;;2.35;1.60;;;23.60;42.00;;;;;;4970944;28;46355;-60
2023/01/26 16:01:22;;;;;;;2.63;1.30;;;23.50;42.10;;;;;;4949749;28;44666;-54
2023/01/26 16:03:48;;;;;;;1.85;1.40;;;23.40;42.20;;;;;;4971240;28;45104;-55
2023/01/26 16:06:25;;;;;;;3.13;1.83;;;23.30;42.40;;;;;;4953167;28;45191;-60
2023/01/26 16:08:51;;;;;;;2.47;1.60;;;23.30;42.50;;;;;;4968153;28;45972;-55
2023/01/26 16:11:17;;;;;;;1.67;1.30;;;23.20;42.60;;;;;;4966920;28;44743;-57
2023/01/26 16:13:44;;;;;;;2.25;1.60;;;23.10;42.60;;;;;;4939849;28;45000;-55
2023/01/26 16:16:13;;;;;;;1.70;1.42;;;23.00;42.70;;;;;;4949742;28;45010;-58
2023/01/26 16:18:39;;;;;;;1.58;1.30;;;22.90;42.80;;;;;;4951021;28;44970;-54
2023/01/26 16:21:28;;;;;;;1.50;1.20;;;22.80;42.90;;;;;;4970164;28;45736;-59
2023/01/26 16:23:53;;;;;;;1.50;1.10;;;22.80;43.20;;;;;;4967193;28;45189;-55
2023/01/26 16:26:19;;;;;;;1.60;1.35;;;22.70;43.10;;;;;;4939006;28;44877;-55
2023/01/26 16:28:45;;;;;;;1.35;1.10;;;22.60;43.20;;;;;;4972209;28;45583;-58
2023/01/26 16:31:25;;;;;;;1.90;1.45;;;22.50;43.30;;;;;;4974678;28;45661;-59
2023/01/26 16:33:50;;;;;;;1.60;1.10;;;22.40;43.50;;;;;;4941574;28;45247;-56
2023/01/26 16:36:17;;;;;;;2.13;1.48;;;22.40;43.60;;;;;;4935857;28;45242;-56
2023/01/26 16:38:42;;;;;;;1.73;1.35;;;22.30;43.60;;;;;;4969429;28;45979;-57
2023/01/26 16:41:15;;;;;;;1.52;1.20;;;22.30;43.80;;;;;;4968260;28;44927;-57
2023/01/26 16:43:41;;;;;;;;;;;22.20;43.70;;;;;;4953636;28;44949;-60
2023/01/26 16:46:06;;;;;;;2.00;1.55;;;22.10;44.90;;;;;;4964492;28;44889;-55
2023/01/26 16:48:33;;;;;;;2.30;1.80;;;22.00;43.80;;;;;;4966014;28;46133;-58
2023/01/26 16:51:00;;;;;;;2.55;1.75;;;22.00;43.90;;;;;;4967194;28;45143;-55
2023/01/26 16:53:28;;;;;;;1.70;1.50;;;21.90;44.00;;;;;;4951476;28;45101;-58
2023/01/26 16:55:53;;;;;;;2.60;1.63;;;21.80;44.10;;;;;;4951170;28;44965;-51
2023/01/26 16:58:20;;;;;;;2.20;1.73;;;21.80;44.20;;;;;;4967131;28;44849;-58
2023/01/26 17:00:46;;;;;;;1.65;1.50;;;21.70;44.20;;;;;;4956485;28;44906;-63
2023/01/26 17:03:12;;;;;;;2.40;1.60;;;21.70;44.30;;;;;;4936256;28;45089;-52
2023/01/26 17:05:37;;;;;;;2.30;1.70;;;21.60;44.30;;;;;;4969347;28;44992;-57
2023/01/26 17:08:03;;;;;;;2.00;1.63;;;21.60;44.40;;;;;;4955587;28;46212;-64
2023/01/26 17:10:29;;;;;;;1.83;1.52;;;21.50;44.40;;;;;;4921843;28;44771;-58
2023/01/26 17:12:54;;;;;;;1.60;1.33;;;21.50;44.50;;;;;;4953922;28;45259;-59
2023/01/26 17:15:20;;;;;;;2.20;1.45;;;21.40;44.60;;;;;;4973196;28;45147;-55
2023/01/26 17:17:48;;;;;;;2.25;1.70;;;21.30;44.60;;;;;;4967982;28;44948;-55